createdAt,value
2023-05-18T00:00:54.301Z,7.67
2023-05-18T00:06:07.517Z,7.59
2023-05-18T00:11:10.429Z,7.60
2023-05-18T00:16:15.999Z,7.56
2023-05-18T00:21:19.118Z,7.55
2023-05-18T00:26:24.616Z,7.55
2023-05-18T00:31:27.696Z,7.48
2023-05-18T00:36:31.640Z,7.41
2023-05-18T00:41:34.577Z,7.32
2023-05-18T00:46:37.617Z,7.23
2023-05-18T00:51:40.824Z,7.18
2023-05-18T00:56:46.230Z,7.14
2023-05-18T01:01:49.446Z,7.10
2023-05-18T01:06:56.829Z,7.03
2023-05-18T01:12:18.202Z,7.01
2023-05-18T01:17:51.504Z,7.01
2023-05-18T01:23:29.909Z,7.00
2023-05-18T01:28:33.293Z,7.04
2023-05-18T01:33:36.429Z,7.07
2023-05-18T01:38:40.598Z,7.11
2023-05-18T01:44:19.881Z,7.15
2023-05-18T01:49:58.170Z,7.15
2023-05-18T01:55:04.667Z,7.19
2023-05-18T02:00:10.358Z,7.16
2023-05-18T02:05:13.398Z,7.17
2023-05-18T02:10:16.806Z,7.18
2023-05-18T02:15:19.841Z,7.16
2023-05-18T02:20:22.735Z,7.10
2023-05-18T02:25:26.417Z,7.08
2023-05-18T02:30:33.249Z,7.02
2023-05-18T02:35:36.430Z,6.96
2023-05-18T02:40:39.287Z,6.91
2023-05-18T02:45:42.141Z,6.90
2023-05-18T02:50:47.030Z,6.90
2023-05-18T02:55:50.049Z,6.86
2023-05-18T03:00:55.353Z,6.87
2023-05-18T03:05:58.554Z,6.83
2023-05-18T03:11:01.522Z,6.80
2023-05-18T03:16:05.581Z,6.76
2023-05-18T03:21:08.520Z,6.77
2023-05-18T03:26:12.521Z,6.75
2023-05-18T03:31:15.487Z,6.77
2023-05-18T03:36:18.427Z,6.79
2023-05-18T03:41:22.253Z,6.81
2023-05-18T03:46:25.280Z,6.82
2023-05-18T03:51:29.305Z,6.83
2023-05-18T03:56:32.154Z,6.87
2023-05-18T04:01:35.569Z,6.93
2023-05-18T04:06:40.281Z,6.95
2023-05-18T04:11:44.229Z,6.99
2023-05-18T04:16:47.358Z,7.05
2023-05-18T04:21:50.526Z,7.14
2023-05-18T04:26:53.656Z,7.21
2023-05-18T04:32:01.190Z,7.32
2023-05-18T04:37:07.761Z,7.42
2023-05-18T04:42:10.692Z,7.51
2023-05-18T04:47:13.623Z,7.53
2023-05-18T04:52:16.537Z,7.61
2023-05-18T04:57:19.446Z,7.72
2023-05-18T05:02:22.415Z,7.85
2023-05-18T05:07:25.623Z,8.02
2023-05-18T05:12:28.586Z,8.05
2023-05-18T05:17:31.476Z,8.10
2023-05-18T05:22:34.505Z,8.29
2023-05-18T05:27:37.388Z,8.41
2023-05-18T05:32:40.279Z,8.50
2023-05-18T05:37:43.129Z,8.54
2023-05-18T05:42:46.095Z,8.57
2023-05-18T05:47:49.697Z,8.70
2023-05-18T05:52:52.750Z,8.85
2023-05-18T05:57:55.646Z,8.97
2023-05-18T06:02:58.986Z,9.13
2023-05-18T06:08:01.950Z,9.24
2023-05-18T06:13:04.848Z,9.33
2023-05-18T06:18:07.747Z,9.43
2023-05-18T06:23:10.884Z,9.42
2023-05-18T06:28:13.781Z,9.49
2023-05-18T06:33:17.762Z,9.62
2023-05-18T06:38:20.827Z,9.61
2023-05-18T06:43:26.938Z,9.70
2023-05-18T06:48:30.008Z,9.78
2023-05-18T06:53:32.881Z,9.91
2023-05-18T06:58:35.837Z,10.08
2023-05-18T07:03:38.848Z,10.38
2023-05-18T07:08:41.862Z,10.61
2023-05-18T07:13:44.759Z,10.49
2023-05-18T07:18:47.880Z,10.75
2023-05-18T07:23:52.705Z,10.93
2023-05-18T07:28:55.663Z,11.04
2023-05-18T07:33:58.524Z,11.12
2023-05-18T07:39:01.696Z,11.18
2023-05-18T07:44:04.761Z,11.40
2023-05-18T07:49:07.719Z,11.56
2023-05-18T07:54:11.062Z,11.72
2023-05-18T07:59:13.943Z,11.72
2023-05-18T08:04:16.815Z,11.95
2023-05-18T08:09:22.221Z,12.02
2023-05-18T08:14:25.248Z,12.06
2023-05-18T08:19:28.089Z,12.17
2023-05-18T08:24:31.972Z,12.30
2023-05-18T08:29:34.883Z,12.31
2023-05-18T08:34:37.921Z,12.42
2023-05-18T08:39:40.973Z,12.64
2023-05-18T08:44:57.252Z,12.98
2023-05-18T08:50:00.316Z,13.31
2023-05-18T08:55:08.481Z,13.61
2023-05-18T09:00:14.279Z,13.67
2023-05-18T09:05:17.416Z,13.82
2023-05-18T09:10:20.432Z,13.81
2023-05-18T09:15:25.611Z,13.58
2023-05-18T09:20:28.812Z,13.75
2023-05-18T09:25:35.254Z,14.00
2023-05-18T09:30:43.296Z,14.21
2023-05-18T09:35:47.151Z,14.16
2023-05-18T09:40:50.328Z,14.23
2023-05-18T09:45:53.222Z,14.37
2023-05-18T09:50:56.156Z,14.37
2023-05-18T09:56:03.814Z,14.13
2023-05-18T10:01:06.813Z,14.47
2023-05-18T10:06:13.424Z,14.24
2023-05-18T10:11:19.881Z,14.43
2023-05-18T10:16:23.832Z,14.87
2023-05-18T10:21:28.784Z,15.04
2023-05-18T10:26:31.587Z,15.34
2023-05-18T10:31:37.917Z,15.64
2023-05-18T10:36:42.911Z,15.92
2023-05-18T10:41:46.008Z,15.90
2023-05-18T10:46:48.934Z,16.34
2023-05-18T10:51:55.994Z,16.87
2023-05-18T10:56:58.930Z,17.04
2023-05-18T11:02:01.855Z,16.79
2023-05-18T11:07:05.217Z,16.83
2023-05-18T11:12:13.073Z,16.98
2023-05-18T11:17:23.230Z,17.68
2023-05-18T11:22:27.280Z,18.03
2023-05-18T11:27:31.618Z,18.50
2023-05-18T11:32:36.521Z,18.54
2023-05-18T11:37:39.544Z,18.51
2023-05-18T11:42:42.380Z,18.51
2023-05-18T11:47:45.249Z,18.51
2023-05-18T11:52:51.640Z,18.81
2023-05-18T11:57:54.529Z,19.11
2023-05-18T12:02:57.515Z,19.36
2023-05-18T12:08:00.679Z,19.70
2023-05-18T12:13:03.542Z,20.19
2023-05-18T12:18:06.449Z,20.64
2023-05-18T12:23:09.444Z,20.97
2023-05-18T12:28:13.584Z,21.15
2023-05-18T12:33:16.592Z,21.19
2023-05-18T12:38:20.062Z,20.86
2023-05-18T12:43:25.650Z,19.96
2023-05-18T12:48:30.857Z,19.19
2023-05-18T12:53:43.235Z,19.00
2023-05-18T12:58:59.384Z,18.89
2023-05-18T13:04:02.606Z,18.49
2023-05-18T13:09:12.822Z,18.48
2023-05-18T13:14:21.551Z,18.12
2023-05-18T13:19:25.927Z,17.73
2023-05-18T13:24:29.196Z,17.52
2023-05-18T13:29:34.598Z,17.31
2023-05-18T13:34:37.543Z,17.07
2023-05-18T13:39:40.450Z,16.74
2023-05-18T13:44:43.477Z,16.56
2023-05-18T13:49:46.289Z,16.36
2023-05-18T13:54:49.287Z,16.29
2023-05-18T13:59:53.179Z,16.24
2023-05-18T14:04:56.868Z,16.23
2023-05-18T14:09:59.711Z,16.01
2023-05-18T14:15:03.079Z,15.87
2023-05-18T14:20:08.173Z,15.86
2023-05-18T14:25:11.139Z,15.83
2023-05-18T14:30:14.316Z,15.82
2023-05-18T14:35:17.189Z,15.78
2023-05-18T14:40:20.139Z,15.74
2023-05-18T14:45:23.004Z,15.61
2023-05-18T14:50:25.904Z,15.51
2023-05-18T14:55:29.067Z,15.36
2023-05-18T15:00:32.266Z,15.22
2023-05-18T15:05:35.735Z,15.06
2023-05-18T15:10:38.584Z,14.99
2023-05-18T15:15:42.328Z,14.92
2023-05-18T15:20:46.879Z,14.86
2023-05-18T15:25:51.433Z,14.72
2023-05-18T15:30:55.339Z,14.48
2023-05-18T15:35:58.210Z,14.42
2023-05-18T15:41:01.126Z,14.40
2023-05-18T15:46:04.148Z,14.38
2023-05-18T15:51:07.578Z,14.33
2023-05-18T15:56:10.897Z,14.22
2023-05-18T16:01:13.856Z,14.11
2023-05-18T16:06:17.637Z,14.14
2023-05-18T16:11:21.741Z,14.11
2023-05-18T16:16:25.454Z,14.05
2023-05-18T16:21:28.552Z,14.10
2023-05-18T16:26:33.831Z,14.16
2023-05-18T16:31:37.235Z,14.12
2023-05-18T16:36:40.357Z,14.06
2023-05-18T16:41:43.163Z,14.02
2023-05-18T16:46:46.203Z,13.93
2023-05-18T16:51:49.096Z,13.87
2023-05-18T16:56:52.068Z,13.80
2023-05-18T17:01:55.000Z,13.71
2023-05-18T17:06:57.855Z,13.63
2023-05-18T17:12:00.991Z,13.56
2023-05-18T17:17:05.240Z,13.49
2023-05-18T17:22:11.113Z,13.40
2023-05-18T17:27:14.072Z,13.31
2023-05-18T17:32:16.846Z,13.22
2023-05-18T17:37:19.964Z,13.13
2023-05-18T17:42:22.816Z,13.07
2023-05-18T17:47:25.739Z,13.00
2023-05-18T17:52:28.719Z,12.93
2023-05-18T17:57:32.878Z,12.88
2023-05-18T18:02:35.764Z,12.82
2023-05-18T18:07:39.319Z,12.77
2023-05-18T18:12:42.757Z,12.69
2023-05-18T18:17:45.643Z,12.65
2023-05-18T18:22:48.784Z,12.58
2023-05-18T18:27:51.770Z,12.54
2023-05-18T18:32:54.724Z,12.46
2023-05-18T18:37:58.553Z,12.41
2023-05-18T18:43:01.557Z,12.36
2023-05-18T18:48:05.178Z,12.33
2023-05-18T18:53:08.204Z,12.29
2023-05-18T18:58:11.083Z,12.24
2023-05-18T19:03:17.355Z,12.21
2023-05-18T19:08:21.616Z,12.14
2023-05-18T19:13:24.808Z,12.10
2023-05-18T19:18:27.639Z,12.06
2023-05-18T19:23:30.561Z,12.02
2023-05-18T19:28:33.482Z,11.98
2023-05-18T19:33:36.424Z,11.95
2023-05-18T19:38:39.653Z,11.94
2023-05-18T19:43:42.794Z,11.91
2023-05-18T19:48:45.648Z,11.87
2023-05-18T19:53:48.469Z,11.83
2023-05-18T19:58:51.773Z,11.83
2023-05-18T20:03:56.856Z,11.82
2023-05-18T20:09:01.372Z,11.79
2023-05-18T20:14:04.228Z,11.79
2023-05-18T20:19:08.536Z,11.78
2023-05-18T20:24:11.513Z,11.77
2023-05-18T20:29:14.441Z,11.74
2023-05-18T20:34:17.663Z,11.74
2023-05-18T20:39:20.756Z,11.76
2023-05-18T20:44:23.808Z,11.77
2023-05-18T20:49:26.893Z,11.78
2023-05-18T20:54:29.852Z,11.79
2023-05-18T20:59:32.646Z,11.81
2023-05-18T21:04:35.664Z,11.82
2023-05-18T21:09:38.542Z,11.84
2023-05-18T21:14:41.527Z,11.83
2023-05-18T21:19:44.410Z,11.81
2023-05-18T21:24:47.260Z,11.80
2023-05-18T21:29:50.066Z,11.81
2023-05-18T21:34:53.133Z,11.80
2023-05-18T21:39:56.279Z,11.79
2023-05-18T21:44:59.342Z,11.77
2023-05-18T21:50:04.228Z,11.76
2023-05-18T21:55:08.033Z,11.76
2023-05-18T22:00:13.728Z,11.72
2023-05-18T22:05:16.654Z,11.69
2023-05-18T22:10:19.602Z,11.64
2023-05-18T22:15:22.896Z,11.59
2023-05-18T22:20:25.950Z,11.52
2023-05-18T22:25:28.934Z,11.46
2023-05-18T22:30:33.642Z,11.41
2023-05-18T22:35:36.829Z,11.36
2023-05-18T22:40:39.773Z,11.33
2023-05-18T22:45:42.615Z,11.32
2023-05-18T22:50:45.832Z,11.28
2023-05-18T22:55:48.660Z,11.25
2023-05-18T23:00:53.584Z,11.22
2023-05-18T23:05:57.718Z,11.17
2023-05-18T23:11:01.824Z,11.11
2023-05-18T23:16:05.766Z,11.01
2023-05-18T23:21:09.191Z,10.93
2023-05-18T23:26:12.746Z,10.84
2023-05-18T23:31:16.572Z,10.72
2023-05-18T23:36:20.741Z,10.62
2023-05-18T23:41:23.511Z,10.55
2023-05-18T23:46:26.746Z,10.48
2023-05-18T23:51:32.041Z,10.38
2023-05-18T23:56:35.965Z,10.28
